createdAt,value
2023-05-05T00:01:16.833Z,8.85
2023-05-05T00:04:22.838Z,8.82
2023-05-05T00:07:25.385Z,8.83
2023-05-05T00:10:28.272Z,8.82
2023-05-05T00:13:30.962Z,8.79
2023-05-05T00:16:33.709Z,8.72
2023-05-05T00:19:36.449Z,8.68
2023-05-05T00:22:39.185Z,8.61
2023-05-05T00:25:41.715Z,8.56
2023-05-05T00:28:44.654Z,8.55
2023-05-05T00:31:47.149Z,8.49
2023-05-05T00:34:49.866Z,8.40
2023-05-05T00:37:52.235Z,8.36
2023-05-05T00:40:55.105Z,8.33
2023-05-05T00:43:57.560Z,8.30
2023-05-05T00:47:00.387Z,8.14
2023-05-05T00:50:21.602Z,8.14
2023-05-05T00:53:26.738Z,8.06
2023-05-05T00:56:29.214Z,7.92
2023-05-05T00:59:33.978Z,7.80
2023-05-05T01:02:36.778Z,7.73
2023-05-05T01:06:11.150Z,7.60
2023-05-05T01:09:42.666Z,7.46
2023-05-05T01:13:19.457Z,7.46
2023-05-05T01:16:26.006Z,7.35
2023-05-05T01:19:49.727Z,7.26
2023-05-05T01:22:58.675Z,7.23
2023-05-05T01:26:39.396Z,7.17
2023-05-05T01:30:11.506Z,7.10
2023-05-05T01:33:16.286Z,7.03
2023-05-05T01:36:24.603Z,7.06
2023-05-05T01:39:31.965Z,7.00
2023-05-05T01:42:35.656Z,7.02
2023-05-05T01:45:39.599Z,7.05
2023-05-05T01:48:43.577Z,7.03
2023-05-05T01:51:47.560Z,7.02
2023-05-05T01:54:51.055Z,6.94
2023-05-05T01:57:55.339Z,6.97
2023-05-05T02:00:58.946Z,6.99
2023-05-05T02:04:03.796Z,7.05
2023-05-05T02:07:06.994Z,7.05
2023-05-05T02:10:10.894Z,7.07
2023-05-05T02:13:13.527Z,7.09
2023-05-05T02:16:17.292Z,7.12
2023-05-05T02:19:21.868Z,7.12
2023-05-05T02:22:25.410Z,7.14
2023-05-05T02:25:35.185Z,7.13
2023-05-05T02:29:07.687Z,7.16
2023-05-05T02:32:15.037Z,7.10
2023-05-05T02:35:21.486Z,7.11
2023-05-05T02:38:27.821Z,7.09
2023-05-05T02:41:36.681Z,7.07
2023-05-05T02:44:45.918Z,7.07
2023-05-05T02:47:49.772Z,7.02
2023-05-05T02:50:52.579Z,6.99
2023-05-05T02:54:06.896Z,6.99
2023-05-05T02:57:11.690Z,6.98
2023-05-05T03:00:40.505Z,6.94
2023-05-05T03:04:07.817Z,6.88
2023-05-05T03:07:26.739Z,6.85
2023-05-05T03:10:56.326Z,6.84
2023-05-05T03:14:09.268Z,6.87
2023-05-05T03:17:13.937Z,6.85
2023-05-05T03:20:17.307Z,6.89
2023-05-05T03:23:23.428Z,6.85
2023-05-05T03:26:31.711Z,6.88
2023-05-05T03:29:34.244Z,6.79
2023-05-05T03:32:38.642Z,6.72
2023-05-05T03:35:41.071Z,6.74
2023-05-05T03:38:46.817Z,6.80
2023-05-05T03:41:49.572Z,6.81
2023-05-05T03:44:54.641Z,6.77
2023-05-05T03:47:58.566Z,6.75
2023-05-05T03:51:01.333Z,6.83
2023-05-05T03:54:06.696Z,6.85
2023-05-05T03:57:09.725Z,6.91
2023-05-05T04:00:12.721Z,6.94
2023-05-05T04:03:18.529Z,7.06
2023-05-05T04:06:23.967Z,7.20
2023-05-05T04:09:26.843Z,7.31
2023-05-05T04:12:30.290Z,7.42
2023-05-05T04:15:33.474Z,7.60
2023-05-05T04:18:37.490Z,7.74
2023-05-05T04:21:40.853Z,7.79
2023-05-05T04:24:44.590Z,7.96
2023-05-05T04:27:48.576Z,8.09
2023-05-05T04:30:51.758Z,8.28
2023-05-05T04:33:54.259Z,8.47
2023-05-05T04:36:57.411Z,8.55
2023-05-05T04:40:00.073Z,8.59
2023-05-05T04:43:04.123Z,8.70
2023-05-05T04:46:08.476Z,8.81
2023-05-05T04:49:13.888Z,8.89
2023-05-05T04:52:16.359Z,8.97
2023-05-05T04:55:19.215Z,9.14
2023-05-05T04:58:21.761Z,9.23
2023-05-05T05:01:24.601Z,9.43
2023-05-05T05:04:27.612Z,9.58
2023-05-05T05:07:30.602Z,9.80
2023-05-05T05:10:33.068Z,10.01
2023-05-05T05:13:35.809Z,10.08
2023-05-05T05:16:38.327Z,10.21
2023-05-05T05:19:41.766Z,10.39
2023-05-05T05:22:44.249Z,10.51
2023-05-05T05:25:51.493Z,10.68
2023-05-05T05:28:55.943Z,10.76
2023-05-05T05:31:59.014Z,10.96
2023-05-05T05:35:01.592Z,10.96
2023-05-05T05:38:04.538Z,11.11
2023-05-05T05:41:10.247Z,11.39
2023-05-05T05:44:14.905Z,11.60
2023-05-05T05:47:17.349Z,11.86
2023-05-05T05:50:23.508Z,11.98
2023-05-05T05:53:26.371Z,12.15
2023-05-05T05:56:30.298Z,12.61
2023-05-05T05:59:33.272Z,13.21
2023-05-05T06:02:36.405Z,13.44
2023-05-05T06:05:39.092Z,14.09
2023-05-05T06:08:42.501Z,14.43
2023-05-05T06:11:44.919Z,14.57
2023-05-05T06:14:47.841Z,14.56
2023-05-05T06:17:50.287Z,14.44
2023-05-05T06:20:53.183Z,14.36
2023-05-05T06:23:58.698Z,14.21
2023-05-05T06:27:02.733Z,14.11
2023-05-05T06:30:07.408Z,14.13
2023-05-05T06:33:10.371Z,13.96
2023-05-05T06:36:12.816Z,14.09
2023-05-05T06:39:16.132Z,14.26
2023-05-05T06:42:18.688Z,14.36
2023-05-05T06:45:22.495Z,14.42
2023-05-05T06:48:24.937Z,14.55
2023-05-05T06:51:27.912Z,14.78
2023-05-05T06:54:30.323Z,14.85
2023-05-05T06:57:33.132Z,15.02
2023-05-05T07:00:35.501Z,14.94
2023-05-05T07:03:38.464Z,15.11
2023-05-05T07:06:41.040Z,15.23
2023-05-05T07:09:45.263Z,15.42
2023-05-05T07:12:49.369Z,15.49
2023-05-05T07:15:52.133Z,15.55
2023-05-05T07:18:54.615Z,15.54
2023-05-05T07:21:57.556Z,15.78
2023-05-05T07:25:00.008Z,15.89
2023-05-05T07:28:03.118Z,16.04
2023-05-05T07:31:05.703Z,16.14
2023-05-05T07:34:09.328Z,16.30
2023-05-05T07:37:11.800Z,16.62
2023-05-05T07:40:14.634Z,16.56
2023-05-05T07:43:16.976Z,16.44
2023-05-05T07:46:20.157Z,16.55
2023-05-05T07:49:22.695Z,16.74
2023-05-05T07:52:43.310Z,17.08
2023-05-05T07:55:47.402Z,17.48
2023-05-05T07:58:50.246Z,17.39
2023-05-05T08:01:54.334Z,17.27
2023-05-05T08:04:57.749Z,16.91
2023-05-05T08:08:00.208Z,17.05
2023-05-05T08:11:03.545Z,17.00
2023-05-05T08:14:05.964Z,16.63
2023-05-05T08:17:09.083Z,16.74
2023-05-05T08:20:12.160Z,16.99
2023-05-05T08:23:14.856Z,17.39
2023-05-05T08:26:17.478Z,17.43
2023-05-05T08:29:20.222Z,17.43
2023-05-05T08:32:22.677Z,17.44
2023-05-05T08:35:25.625Z,17.36
2023-05-05T08:38:28.205Z,17.12
2023-05-05T08:41:31.178Z,17.21
2023-05-05T08:44:34.065Z,17.07
2023-05-05T08:47:37.748Z,17.02
2023-05-05T08:50:40.816Z,17.08
2023-05-05T08:53:56.078Z,16.90
2023-05-05T08:57:02.164Z,16.75
2023-05-05T09:00:05.666Z,16.63
2023-05-05T09:03:08.256Z,16.72
2023-05-05T09:06:11.581Z,16.49
2023-05-05T09:09:14.559Z,16.63
2023-05-05T09:12:18.820Z,16.70
2023-05-05T09:15:21.262Z,16.50
2023-05-05T09:18:24.075Z,16.50
2023-05-05T09:21:26.720Z,16.33
2023-05-05T09:24:29.536Z,16.69
2023-05-05T09:27:36.405Z,17.28
2023-05-05T09:30:40.709Z,17.43
2023-05-05T09:33:43.884Z,17.75
2023-05-05T09:36:48.201Z,18.19
2023-05-05T09:39:55.160Z,18.52
2023-05-05T09:43:03.134Z,19.09
2023-05-05T09:46:07.836Z,19.48
2023-05-05T09:49:18.697Z,19.78
2023-05-05T09:52:21.263Z,19.16
2023-05-05T09:55:24.903Z,18.76
2023-05-05T09:58:29.035Z,18.82
2023-05-05T10:01:31.803Z,19.08
2023-05-05T10:07:51.007Z,19.57
2023-05-05T10:11:07.415Z,19.61
2023-05-05T10:14:14.331Z,19.78
2023-05-05T10:17:17.140Z,19.83
2023-05-05T10:20:21.418Z,19.48
2023-05-05T10:23:25.090Z,19.07
2023-05-05T10:26:28.170Z,19.05
2023-05-05T10:29:42.662Z,19.22
2023-05-05T10:33:03.441Z,19.23
2023-05-05T10:36:12.926Z,19.31
2023-05-05T10:39:17.305Z,19.19
2023-05-05T10:42:20.772Z,19.30
2023-05-05T10:45:23.649Z,19.33
2023-05-05T10:48:43.151Z,19.20
2023-05-05T10:51:51.807Z,18.99
2023-05-05T10:55:15.851Z,19.39
2023-05-05T10:58:47.107Z,19.51
2023-05-05T11:01:58.512Z,19.42
2023-05-05T11:05:15.262Z,19.17
2023-05-05T11:08:27.892Z,19.15
2023-05-05T11:12:04.228Z,19.31
2023-05-05T11:15:31.636Z,19.71
2023-05-05T11:18:36.568Z,19.58
2023-05-05T11:22:04.713Z,19.29
2023-05-05T11:25:41.034Z,19.63
2023-05-05T11:29:00.338Z,20.13
2023-05-05T11:32:13.326Z,20.04
2023-05-05T11:35:16.481Z,19.59
2023-05-05T11:38:22.292Z,19.53
2023-05-05T11:41:35.426Z,19.26
2023-05-05T11:44:38.032Z,19.36
2023-05-05T11:47:40.887Z,19.69
2023-05-05T11:50:43.307Z,20.21
2023-05-05T11:53:47.708Z,20.71
2023-05-05T11:56:51.434Z,20.60
2023-05-05T11:59:57.163Z,20.61
2023-05-05T12:02:59.940Z,20.34
2023-05-05T12:06:04.244Z,20.14
2023-05-05T12:09:21.123Z,20.06
2023-05-05T12:12:42.487Z,20.27
2023-05-05T12:15:45.113Z,19.82
2023-05-05T12:18:48.101Z,19.74
2023-05-05T12:21:50.636Z,19.57
2023-05-05T12:24:57.893Z,19.29
2023-05-05T12:28:00.350Z,19.38
2023-05-05T12:31:03.930Z,19.83
2023-05-05T12:34:09.895Z,20.03
2023-05-05T12:37:12.740Z,20.11
2023-05-05T12:40:44.237Z,19.53
2023-05-05T12:43:47.930Z,19.25
2023-05-05T12:46:53.139Z,19.02
2023-05-05T12:49:56.265Z,18.60
2023-05-05T12:52:58.699Z,18.84
2023-05-05T12:56:01.389Z,18.66
2023-05-05T12:59:29.255Z,18.46
2023-05-05T13:02:35.522Z,18.52
2023-05-05T13:05:38.003Z,18.24
2023-05-05T13:08:44.066Z,17.98
2023-05-05T13:11:46.537Z,17.79
2023-05-05T13:14:49.367Z,17.69
2023-05-05T13:17:58.451Z,17.51
2023-05-05T13:21:01.212Z,17.23
2023-05-05T13:27:09.860Z,17.21
2023-05-05T13:30:12.697Z,17.20
2023-05-05T13:33:15.417Z,17.03
2023-05-05T13:36:17.966Z,16.89
2023-05-05T13:39:21.082Z,16.92
2023-05-05T13:42:25.031Z,16.93
2023-05-05T13:45:27.822Z,17.02
2023-05-05T13:48:30.256Z,17.15
2023-05-05T13:51:34.973Z,17.13
2023-05-05T13:54:37.810Z,17.01
2023-05-05T13:57:40.500Z,17.02
2023-05-05T14:00:43.215Z,16.40
2023-05-05T14:03:46.145Z,16.60
2023-05-05T14:06:48.653Z,16.84
2023-05-05T16:02:56.246Z,15.74
2023-05-05T16:05:58.703Z,15.62
2023-05-05T16:09:01.474Z,15.71
2023-05-05T16:12:04.361Z,15.66
2023-05-05T16:15:07.844Z,15.56
2023-05-05T16:18:10.814Z,15.53
2023-05-05T16:21:13.708Z,15.28
2023-05-05T16:24:17.095Z,15.31
2023-05-05T16:27:19.928Z,15.20
2023-05-05T16:30:22.996Z,15.04
2023-05-05T16:33:25.866Z,15.14
2023-05-05T16:36:28.605Z,15.42
2023-05-05T16:39:33.207Z,15.45
2023-05-05T16:42:35.563Z,15.31
2023-05-05T16:45:38.389Z,15.54
2023-05-05T16:48:41.281Z,15.33
2023-05-05T16:51:44.478Z,15.28
2023-05-05T16:54:48.408Z,15.23
2023-05-05T16:57:51.178Z,14.71
2023-05-05T17:00:54.009Z,14.62
2023-05-05T17:03:58.048Z,14.49
2023-05-05T17:07:00.534Z,14.48
2023-05-05T17:10:03.281Z,14.13
2023-05-05T17:13:05.748Z,14.15
2023-05-05T17:16:08.598Z,14.17
2023-05-05T17:19:10.974Z,14.09
2023-05-05T17:22:13.838Z,14.08
2023-05-05T17:25:16.267Z,14.00
2023-05-05T17:28:20.361Z,13.81
2023-05-05T17:31:22.813Z,13.86
2023-05-05T17:34:25.765Z,13.83
2023-05-05T17:37:28.673Z,13.66
2023-05-05T17:40:31.324Z,13.61
2023-05-05T17:43:34.114Z,13.74
2023-05-05T17:46:37.633Z,13.73
2023-05-05T17:49:40.452Z,13.64
2023-05-05T17:52:44.128Z,13.67
2023-05-05T17:55:47.176Z,13.68
2023-05-05T17:58:49.632Z,13.65
2023-05-05T18:01:52.281Z,13.56
2023-05-05T18:04:55.349Z,13.49
2023-05-05T18:07:58.430Z,13.29
2023-05-05T18:11:02.112Z,13.27
2023-05-05T18:14:05.069Z,13.11
2023-05-05T18:17:07.906Z,13.07
2023-05-05T18:20:11.265Z,12.91
2023-05-05T18:23:13.990Z,12.85
2023-05-05T18:26:17.631Z,12.72
2023-05-05T18:29:22.102Z,12.64
2023-05-05T18:32:24.943Z,12.68
2023-05-05T18:35:28.228Z,12.61
2023-05-05T18:38:31.833Z,12.56
2023-05-05T18:41:35.902Z,12.44
2023-05-05T18:44:40.415Z,12.38
2023-05-05T18:47:43.369Z,12.25
2023-05-05T18:50:47.082Z,12.20
2023-05-05T18:53:50.206Z,12.11
2023-05-05T18:56:53.081Z,12.06
2023-05-05T18:59:55.836Z,11.99
2023-05-05T19:02:58.777Z,11.91
2023-05-05T19:06:06.191Z,11.80
2023-05-05T19:09:09.298Z,11.60
2023-05-05T19:12:11.854Z,11.45
2023-05-05T19:15:14.893Z,11.38
2023-05-05T19:18:17.534Z,11.35
2023-05-05T19:21:20.401Z,11.25
2023-05-05T19:24:22.892Z,11.17
2023-05-05T19:27:27.445Z,11.10
2023-05-05T19:30:30.786Z,10.95
2023-05-05T19:33:34.377Z,10.89
2023-05-05T19:36:36.827Z,10.81
2023-05-05T19:39:40.157Z,10.75
2023-05-05T19:42:44.066Z,10.66
2023-05-05T19:45:48.106Z,10.59
2023-05-05T19:48:51.198Z,10.53
2023-05-05T19:51:55.310Z,10.48
2023-05-05T19:54:59.072Z,10.46
2023-05-05T19:58:01.801Z,10.39
2023-05-05T20:01:04.244Z,10.32
2023-05-05T20:04:07.720Z,10.29
2023-05-05T20:07:10.332Z,10.33
2023-05-05T20:10:16.927Z,10.34
2023-05-05T20:13:20.127Z,10.33
2023-05-05T20:16:23.016Z,10.30
2023-05-05T20:19:25.473Z,10.31
2023-05-05T20:22:28.278Z,10.21
2023-05-05T20:25:30.924Z,10.17
2023-05-05T20:28:34.455Z,10.22
2023-05-05T20:31:39.159Z,10.28
2023-05-05T20:34:41.933Z,10.37
2023-05-05T20:38:11.117Z,10.40
2023-05-05T20:41:33.453Z,10.39
2023-05-05T20:45:58.572Z,10.47
2023-05-05T20:54:00.002Z,10.33
2023-05-05T21:02:00.947Z,10.23
2023-05-05T21:10:25.576Z,10.09
2023-05-05T21:13:29.260Z,10.07
2023-05-05T21:17:16.762Z,10.05
2023-05-05T21:20:43.514Z,10.01
2023-05-05T21:23:48.145Z,10.02
2023-05-05T21:27:03.166Z,10.00
2023-05-05T21:30:35.753Z,9.95
2023-05-05T21:34:02.648Z,9.94
2023-05-05T21:41:13.090Z,9.82
2023-05-05T21:45:00.232Z,9.78
2023-05-05T21:48:06.791Z,9.78
2023-05-05T21:51:34.880Z,9.76
2023-05-05T21:54:37.916Z,9.73
2023-05-05T21:57:59.018Z,9.69
2023-05-05T22:01:02.493Z,9.57
2023-05-05T22:04:05.770Z,9.56
2023-05-05T22:10:49.301Z,9.50
2023-05-05T22:13:52.244Z,9.49
2023-05-05T22:16:56.923Z,9.42
2023-05-05T22:23:41.709Z,9.37
2023-05-05T22:26:44.185Z,9.34
2023-05-05T22:29:47.157Z,9.32
2023-05-05T22:32:49.799Z,9.33
2023-05-05T22:35:53.652Z,9.30
2023-05-05T22:38:56.460Z,9.24
2023-05-05T22:41:59.102Z,9.23
2023-05-05T22:45:01.569Z,9.19
2023-05-05T22:48:04.734Z,9.21
2023-05-05T22:51:07.780Z,9.26
2023-05-05T22:54:10.896Z,9.26
2023-05-05T22:57:13.368Z,9.22
2023-05-05T23:00:16.171Z,9.22
2023-05-05T23:03:18.699Z,9.18
2023-05-05T23:06:21.407Z,9.13
2023-05-05T23:09:23.995Z,9.06
2023-05-05T23:12:26.703Z,9.05
2023-05-05T23:15:29.113Z,9.08
2023-05-05T23:18:32.072Z,9.07
2023-05-05T23:21:52.033Z,9.01
2023-05-05T23:24:55.380Z,8.98
2023-05-05T23:27:59.245Z,8.99
2023-05-05T23:31:02.190Z,8.87
2023-05-05T23:34:04.689Z,8.70
2023-05-05T23:37:07.284Z,8.56
2023-05-05T23:40:09.969Z,8.50
2023-05-05T23:43:13.080Z,8.43
2023-05-05T23:46:15.840Z,8.38
2023-05-05T23:49:18.765Z,8.27
2023-05-05T23:52:21.204Z,8.24
2023-05-05T23:55:24.087Z,8.29
2023-05-05T23:58:26.885Z,8.21
